createdAt,value
2023-01-03T00:00:41.082Z,99700.07
2023-01-03T00:03:28.979Z,99709.17
2023-01-03T00:05:56.823Z,99705.20
2023-01-03T00:08:24.656Z,99711.85
2023-01-03T00:10:52.489Z,99714.63
2023-01-03T00:13:20.442Z,99712.27
2023-01-03T00:15:48.314Z,99708.77
2023-01-03T00:18:16.173Z,99708.52
2023-01-03T00:20:44.120Z,99703.81
2023-01-03T00:23:11.989Z,99716.53
2023-01-03T00:25:39.812Z,99721.54
2023-01-03T00:28:07.701Z,99728.73
2023-01-03T00:30:35.812Z,99722.19
2023-01-03T00:33:04.158Z,99727.35
2023-01-03T00:35:32.392Z,99733.61
2023-01-03T00:38:00.242Z,99737.34
2023-01-03T00:40:28.056Z,99742.17
2023-01-03T00:43:14.604Z,99744.08
2023-01-03T00:45:42.472Z,99752.52
2023-01-03T00:48:10.343Z,99756.73
2023-01-03T00:50:38.280Z,99757.23
2023-01-03T00:53:06.134Z,99757.48
2023-01-03T00:55:34.969Z,99757.86
2023-01-03T00:58:02.855Z,99761.10
2023-01-03T01:00:30.897Z,99767.64
2023-01-03T01:02:58.976Z,99771.42
2023-01-03T01:05:29.690Z,99780.13
2023-01-03T01:07:58.154Z,99784.40
2023-01-03T01:10:26.049Z,99785.60
2023-01-03T01:12:58.356Z,99790.66
2023-01-03T01:15:26.184Z,99797.65
2023-01-03T01:17:54.037Z,99796.88
2023-01-03T01:20:21.902Z,99799.48
2023-01-03T01:22:49.765Z,99805.77
2023-01-03T01:25:17.625Z,99809.22
2023-01-03T01:27:45.530Z,99811.06
2023-01-03T01:30:13.645Z,99813.09
2023-01-03T01:32:41.523Z,99811.30
2023-01-03T01:35:09.575Z,99813.52
2023-01-03T01:37:37.410Z,99818.17
2023-01-03T01:40:05.781Z,99821.02
2023-01-03T01:42:52.103Z,99822.60
2023-01-03T01:45:19.904Z,99828.30
2023-01-03T01:47:54.893Z,99831.92
2023-01-03T01:50:35.004Z,99833.41
2023-01-03T01:53:07.347Z,99831.80
2023-01-03T01:55:41.227Z,99837.27
2023-01-03T01:58:10.045Z,99840.23
2023-01-03T02:00:39.891Z,99838.89
2023-01-03T02:03:08.203Z,99841.54
2023-01-03T02:05:39.432Z,99846.02
2023-01-03T02:08:07.341Z,99851.02
2023-01-03T02:11:03.029Z,99854.00
2023-01-03T02:13:38.419Z,99856.83
2023-01-03T02:16:41.843Z,99852.56
2023-01-03T02:19:32.388Z,99845.33
2023-01-03T02:22:34.075Z,99838.72
2023-01-03T02:25:23.394Z,99844.33
2023-01-03T02:28:00.410Z,99846.23
2023-01-03T02:30:48.276Z,99840.03
2023-01-03T02:33:22.209Z,99846.11
2023-01-03T02:36:26.429Z,99853.28
2023-01-03T02:39:09.762Z,99851.80
2023-01-03T02:42:16.856Z,99857.00
2023-01-03T02:45:40.091Z,99855.64
2023-01-03T02:48:28.862Z,99863.91
2023-01-03T02:51:00.824Z,99868.29
2023-01-03T02:53:37.973Z,99872.02
2023-01-03T02:56:10.268Z,99875.98
2023-01-03T02:58:40.532Z,99869.42
2023-01-03T03:01:11.250Z,99869.04
2023-01-03T03:03:40.959Z,99869.14
2023-01-03T03:06:08.985Z,99875.16
2023-01-03T03:08:37.179Z,99881.55
2023-01-03T03:11:23.781Z,99877.68
2023-01-03T03:14:08.785Z,99883.94
2023-01-03T03:16:49.643Z,99892.48
2023-01-03T03:19:44.219Z,99895.84
2023-01-03T03:23:06.103Z,99893.37
2023-01-03T03:25:41.996Z,99900.70
2023-01-03T03:28:34.015Z,99900.07
2023-01-03T03:31:32.246Z,99902.41
2023-01-03T03:34:08.936Z,99900.73
2023-01-03T03:36:58.136Z,99906.92
2023-01-03T03:39:46.846Z,99909.61
2023-01-03T03:42:54.916Z,99912.51
2023-01-03T03:45:30.227Z,99917.65
2023-01-03T03:48:06.198Z,99926.66
2023-01-03T03:50:43.068Z,99922.80
2023-01-03T03:53:12.644Z,99922.45
2023-01-03T03:55:47.782Z,99933.58
2023-01-03T03:58:21.339Z,99936.05
2023-01-03T04:00:51.325Z,99930.46
2023-01-03T04:03:21.628Z,99936.11
2023-01-03T04:05:57.192Z,99936.09
2023-01-03T04:08:25.120Z,99934.22
2023-01-03T04:11:05.490Z,99942.00
2023-01-03T04:13:35.404Z,99949.42
2023-01-03T04:16:04.316Z,99952.83
2023-01-03T04:18:33.211Z,99958.43
2023-01-03T04:21:01.337Z,99958.45
2023-01-03T04:23:29.283Z,99960.38
2023-01-03T04:25:57.148Z,99966.01
2023-01-03T04:28:25.124Z,99968.14
2023-01-03T04:30:53.054Z,99972.32
2023-01-03T04:33:20.924Z,99974.02
2023-01-03T04:35:48.759Z,99971.71
2023-01-03T04:38:16.905Z,99969.58
2023-01-03T04:40:44.721Z,99968.52
2023-01-03T04:43:31.284Z,99970.40
2023-01-03T04:45:59.334Z,99980.21
2023-01-03T04:48:27.293Z,99985.61
2023-01-03T04:50:57.511Z,99989.65
2023-01-03T04:53:26.778Z,99993.15
2023-01-03T04:55:56.906Z,99993.00
2023-01-03T04:58:25.271Z,99996.95
2023-01-03T05:00:59.017Z,99997.79
2023-01-03T05:03:28.056Z,100000.39
2023-01-03T05:06:05.658Z,100002.40
2023-01-03T05:08:34.064Z,100001.61
2023-01-03T05:11:02.738Z,99996.95
2023-01-03T05:13:30.923Z,99997.60
2023-01-03T05:16:05.137Z,100002.09
2023-01-03T05:18:33.534Z,100004.50
2023-01-03T05:21:34.202Z,100006.53
2023-01-03T05:24:21.248Z,100003.52
2023-01-03T05:26:49.732Z,100011.93
2023-01-03T05:29:21.026Z,100010.73
2023-01-03T05:31:49.616Z,100008.62
2023-01-03T05:34:17.620Z,100010.69
2023-01-03T05:36:45.570Z,100013.16
2023-01-03T05:39:13.598Z,100015.31
2023-01-03T05:42:00.261Z,100017.69
2023-01-03T05:44:30.626Z,100022.30
2023-01-03T05:47:00.709Z,100026.89
2023-01-03T05:49:28.671Z,100031.46
2023-01-03T05:51:56.547Z,100030.36
2023-01-03T05:54:24.845Z,100035.59
2023-01-03T05:56:52.773Z,100044.31
2023-01-03T05:59:21.244Z,100053.78
2023-01-03T06:01:49.671Z,100051.51
2023-01-03T06:04:17.732Z,100052.62
2023-01-03T06:06:45.605Z,100060.44
2023-01-03T06:09:13.459Z,100062.69
2023-01-03T06:11:41.362Z,100068.61
2023-01-03T06:14:10.206Z,100067.02
2023-01-03T06:16:56.922Z,100066.30
2023-01-03T06:19:25.377Z,100071.94
2023-01-03T06:21:53.269Z,100074.76
2023-01-03T06:24:21.167Z,100078.34
2023-01-03T06:26:49.269Z,100079.69
2023-01-03T06:29:17.209Z,100080.38
2023-01-03T06:31:45.069Z,100083.70
2023-01-03T06:34:13.012Z,100088.96
2023-01-03T06:36:40.945Z,100090.60
2023-01-03T06:39:09.012Z,100092.72
2023-01-03T06:41:37.053Z,100096.04
2023-01-03T06:44:05.187Z,100101.80
2023-01-03T06:46:51.763Z,100100.84
2023-01-03T06:49:38.324Z,100104.80
2023-01-03T06:52:32.806Z,100107.25
2023-01-03T06:55:01.313Z,100112.38
2023-01-03T06:57:29.209Z,100114.83
2023-01-03T06:59:57.211Z,100118.34
2023-01-03T07:02:25.320Z,100124.74
2023-01-03T07:04:53.732Z,100129.38
2023-01-03T07:07:21.612Z,100131.38
2023-01-03T07:09:50.699Z,100131.05
2023-01-03T07:12:37.975Z,100138.39
2023-01-03T07:15:06.559Z,100138.02
2023-01-03T07:17:34.494Z,100137.92
2023-01-03T07:20:02.590Z,100141.35
2023-01-03T07:22:30.655Z,100141.42
2023-01-03T07:24:58.637Z,100145.34
2023-01-03T07:27:26.615Z,100150.66
2023-01-03T07:29:54.955Z,100152.44
2023-01-03T07:32:22.819Z,100152.97
2023-01-03T07:34:50.712Z,100153.42
2023-01-03T07:37:19.040Z,100152.04
2023-01-03T07:39:46.985Z,100158.16
2023-01-03T07:42:33.580Z,100159.74
2023-01-03T07:45:01.846Z,100165.15
2023-01-03T07:47:29.804Z,100172.59
2023-01-03T07:49:57.614Z,100176.52
2023-01-03T07:52:25.584Z,100178.48
2023-01-03T07:54:53.532Z,100181.69
2023-01-03T07:57:21.350Z,100184.27
2023-01-03T07:59:49.364Z,100190.13
2023-01-03T08:02:17.472Z,100191.39
2023-01-03T08:04:45.471Z,100190.81
2023-01-03T08:07:13.455Z,100193.02
2023-01-03T08:10:13.387Z,100191.41
2023-01-03T08:12:59.673Z,100203.33
2023-01-03T08:15:27.575Z,100203.71
2023-01-03T08:17:55.543Z,100203.99
2023-01-03T08:20:23.421Z,100203.43
2023-01-03T08:22:51.285Z,100203.39
2023-01-03T08:25:19.090Z,100202.83
2023-01-03T08:27:50.438Z,100206.99
2023-01-03T08:30:18.779Z,100209.55
2023-01-03T08:32:46.925Z,100208.25
2023-01-03T08:35:16.209Z,100207.20
2023-01-03T08:37:46.500Z,100205.67
2023-01-03T08:40:17.814Z,100204.13
2023-01-03T08:42:47.339Z,100203.77
2023-01-03T08:45:17.989Z,100209.55
2023-01-03T08:47:47.017Z,100216.34
2023-01-03T08:50:15.776Z,100217.17
2023-01-03T08:52:43.777Z,100222.52
2023-01-03T08:55:11.679Z,100226.36
2023-01-03T08:57:40.367Z,100225.77
2023-01-03T09:00:08.965Z,100233.86
2023-01-03T09:02:37.088Z,100242.34
2023-01-03T09:05:05.500Z,100240.00
2023-01-03T09:07:33.397Z,100241.41
2023-01-03T09:10:01.319Z,100243.28
2023-01-03T09:12:29.240Z,100244.40
2023-01-03T09:14:57.504Z,100248.48
2023-01-03T09:17:25.525Z,100254.09
2023-01-03T09:19:53.477Z,100258.06
2023-01-03T09:22:21.467Z,100261.79
2023-01-03T09:24:49.412Z,100262.27
2023-01-03T09:27:17.296Z,100263.67
2023-01-03T09:29:45.193Z,100265.07
2023-01-03T09:32:13.030Z,100265.22
2023-01-03T09:34:40.949Z,100260.73
2023-01-03T09:37:08.830Z,100259.41
2023-01-03T09:39:36.830Z,100256.27
2023-01-03T09:42:24.199Z,100255.67
2023-01-03T09:44:53.245Z,100257.85
2023-01-03T09:47:26.004Z,100260.27
2023-01-03T09:53:04.043Z,100260.23
2023-01-03T09:56:12.097Z,100256.48
2023-01-03T09:58:59.929Z,100260.50
2023-01-03T10:02:10.518Z,100261.70
2023-01-03T10:05:03.078Z,100262.73
2023-01-03T10:07:33.741Z,100270.21
2023-01-03T10:10:29.815Z,100262.73
2023-01-03T10:13:07.021Z,100264.54
2023-01-03T10:16:06.787Z,100267.31
2023-01-03T10:18:47.985Z,100266.48
2023-01-03T10:21:52.166Z,100261.83
2023-01-03T10:24:24.945Z,100260.12
2023-01-03T10:27:13.708Z,100262.92
2023-01-03T10:29:42.079Z,100265.47
2023-01-03T10:32:18.118Z,100259.77
2023-01-03T10:35:02.474Z,100262.56
2023-01-03T10:37:30.446Z,100260.69
2023-01-03T10:40:05.110Z,100259.66
2023-01-03T10:42:35.319Z,100259.40
2023-01-03T10:45:06.743Z,100254.27
2023-01-03T10:47:34.609Z,100252.02
2023-01-03T10:50:04.847Z,100246.95
2023-01-03T10:52:41.609Z,100243.95
2023-01-03T10:55:16.146Z,100240.95
2023-01-03T10:57:53.305Z,100245.56
2023-01-03T11:00:38.087Z,100240.73
2023-01-03T11:03:09.744Z,100246.58
2023-01-03T11:05:40.285Z,100248.95
2023-01-03T11:08:21.482Z,100246.51
2023-01-03T11:10:52.698Z,100246.44
2023-01-03T11:13:22.829Z,100245.55
2023-01-03T11:15:55.833Z,100242.04
2023-01-03T11:18:27.683Z,100249.11
2023-01-03T11:21:23.696Z,100243.34
2023-01-03T11:23:54.541Z,100243.06
2023-01-03T11:26:46.534Z,100239.75
2023-01-03T11:29:36.098Z,100230.38
2023-01-03T11:32:21.775Z,100234.70
2023-01-03T11:35:26.235Z,100230.15
2023-01-03T11:38:16.670Z,100231.96
2023-01-03T11:42:39.765Z,100232.26
2023-01-03T11:45:36.033Z,100228.16
2023-01-03T11:52:01.982Z,100227.49
2023-01-03T11:54:57.415Z,100226.90
2023-01-03T11:57:43.405Z,100230.02
2023-01-03T12:00:39.922Z,100230.73
2023-01-03T12:03:24.734Z,100226.60
2023-01-03T12:06:31.603Z,100226.74
2023-01-03T12:09:23.140Z,100230.21
2023-01-03T12:12:20.347Z,100224.84
2023-01-03T12:14:54.222Z,100217.04
2023-01-03T12:17:27.875Z,100225.98
2023-01-03T12:20:11.723Z,100224.67
2023-01-03T12:22:44.672Z,100223.40
2023-01-03T12:25:30.148Z,100221.68
2023-01-03T12:28:10.433Z,100222.90
2023-01-03T12:30:48.420Z,100217.29
2023-01-03T12:33:31.030Z,100219.04
2023-01-03T12:36:06.107Z,100220.20
2023-01-03T12:38:44.815Z,100215.53
2023-01-03T12:41:59.705Z,100214.20
2023-01-03T12:44:34.402Z,100210.91
2023-01-03T12:47:03.795Z,100203.04
2023-01-03T12:49:38.617Z,100209.32
2023-01-03T12:52:16.691Z,100206.36
2023-01-03T12:54:57.773Z,100206.98
2023-01-03T12:57:50.855Z,100210.09
2023-01-03T13:00:41.156Z,100206.36
2023-01-03T13:03:35.708Z,100202.55
2023-01-03T13:06:16.237Z,100202.44
2023-01-03T13:08:53.555Z,100205.63
2023-01-03T13:11:34.367Z,100203.63
2023-01-03T13:14:19.737Z,100204.14
2023-01-03T13:16:50.133Z,100208.16
2023-01-03T13:19:24.214Z,100203.05
2023-01-03T13:21:55.066Z,100201.52
2023-01-03T13:24:52.597Z,100199.25
2023-01-03T13:27:38.165Z,100196.12
2023-01-03T13:30:22.153Z,100205.63
2023-01-03T13:32:54.925Z,100205.61
2023-01-03T13:35:43.037Z,100205.61
2023-01-03T13:38:39.168Z,100207.55
2023-01-03T13:41:29.813Z,100208.54
2023-01-03T13:44:08.385Z,100214.88
2023-01-03T13:46:41.988Z,100213.33
2023-01-03T13:49:16.681Z,100212.20
2023-01-03T13:51:45.247Z,100216.08
2023-01-03T13:54:13.315Z,100222.73
2023-01-03T13:56:44.384Z,100223.67
2023-01-03T13:59:15.528Z,100226.30
2023-01-03T14:02:21.377Z,100229.67
2023-01-03T14:05:01.911Z,100227.15
2023-01-03T14:07:54.895Z,100225.91
2023-01-03T14:11:01.053Z,100225.35
2023-01-03T14:13:48.027Z,100227.17
2023-01-03T14:16:43.506Z,100223.73
2023-01-03T14:19:25.712Z,100226.77
2023-01-03T14:21:54.175Z,100234.71
2023-01-03T14:24:26.695Z,100236.20
2023-01-03T14:27:02.899Z,100245.20
2023-01-03T14:29:31.282Z,100246.04
2023-01-03T14:32:00.481Z,100251.15
2023-01-03T14:34:33.639Z,100254.12
2023-01-03T14:37:07.864Z,100257.95
2023-01-03T14:42:06.621Z,100259.73
2023-01-03T14:44:35.039Z,100260.21
2023-01-03T14:47:07.501Z,100259.49
2023-01-03T14:49:41.672Z,100261.23
2023-01-03T14:52:21.151Z,100262.27
2023-01-03T14:54:54.487Z,100268.86
2023-01-03T14:57:27.478Z,100273.19
2023-01-03T14:59:59.711Z,100273.15
2023-01-03T15:02:34.231Z,100275.26
2023-01-03T15:05:03.007Z,100277.16
2023-01-03T15:07:43.242Z,100275.39
2023-01-03T15:10:11.259Z,100279.95
2023-01-03T15:12:43.946Z,100285.38
2023-01-03T15:15:28.326Z,100285.70
2023-01-03T15:18:01.468Z,100287.81
2023-01-03T15:20:42.039Z,100291.27
2023-01-03T15:23:34.615Z,100292.61
2023-01-03T15:26:02.655Z,100295.38
2023-01-03T15:28:36.535Z,100294.98
2023-01-03T15:31:28.020Z,100298.57
2023-01-03T15:34:13.858Z,100302.86
2023-01-03T15:36:49.039Z,100303.32
2023-01-03T15:39:23.537Z,100306.90
2023-01-03T15:42:43.541Z,100306.28
2023-01-03T15:45:19.415Z,100308.16
2023-01-03T15:47:49.241Z,100311.60
2023-01-03T15:50:19.530Z,100314.46
2023-01-03T15:52:48.744Z,100312.94
2023-01-03T15:55:17.409Z,100317.91
2023-01-03T15:57:50.329Z,100319.74
2023-01-03T16:00:21.802Z,100318.05
2023-01-03T16:02:50.394Z,100322.85
2023-01-03T16:05:22.448Z,100324.86
2023-01-03T16:07:51.618Z,100326.19
2023-01-03T16:10:21.716Z,100328.59
2023-01-03T16:12:49.725Z,100329.92
2023-01-03T16:15:22.041Z,100331.09
2023-01-03T16:17:51.438Z,100331.17
2023-01-03T16:20:20.018Z,100333.17
2023-01-03T16:23:00.531Z,100329.40
2023-01-03T16:25:29.569Z,100331.23
2023-01-03T16:27:57.491Z,100332.16
2023-01-03T16:30:25.521Z,100331.37
2023-01-03T16:32:53.420Z,100335.98
2023-01-03T16:35:21.526Z,100332.91
2023-01-03T16:37:49.392Z,100334.02
2023-01-03T16:40:20.535Z,100330.08
2023-01-03T16:42:48.660Z,100328.61
2023-01-03T16:45:17.677Z,100331.15
2023-01-03T16:47:46.179Z,100327.04
2023-01-03T16:50:19.111Z,100329.05
2023-01-03T16:52:52.538Z,100327.72
2023-01-03T16:55:34.887Z,100328.16
2023-01-03T16:58:02.872Z,100332.23
2023-01-03T17:00:33.554Z,100333.35
2023-01-03T17:03:02.717Z,100336.38
2023-01-03T17:05:36.180Z,100341.51
2023-01-03T17:08:28.767Z,100340.16
2023-01-03T17:10:58.523Z,100339.34
2023-01-03T17:13:30.474Z,100336.92
2023-01-03T17:16:00.744Z,100342.19
2023-01-03T17:18:31.609Z,100347.09
2023-01-03T17:21:27.987Z,100351.14
2023-01-03T17:24:00.847Z,100353.94
2023-01-03T17:26:31.538Z,100350.46
2023-01-03T17:29:01.997Z,100346.83
2023-01-03T17:31:30.368Z,100347.92
2023-01-03T17:33:58.257Z,100350.59
2023-01-03T17:36:30.006Z,100351.31
2023-01-03T17:39:03.290Z,100356.56
2023-01-03T17:41:51.698Z,100360.25
2023-01-03T17:44:19.625Z,100364.99
2023-01-03T17:47:06.670Z,100372.70
2023-01-03T17:49:34.625Z,100379.16
2023-01-03T17:52:08.938Z,100380.59
2023-01-03T17:54:39.886Z,100381.46
2023-01-03T17:57:12.776Z,100383.38
2023-01-03T17:59:40.758Z,100386.16
2023-01-03T18:02:21.755Z,100383.55
2023-01-03T18:05:15.285Z,100382.16
2023-01-03T18:07:38.932Z,100383.76
2023-01-03T18:10:08.992Z,100381.48
2023-01-03T18:12:36.940Z,100378.35
2023-01-03T18:15:13.346Z,100374.67
2023-01-03T18:17:41.629Z,100379.58
2023-01-03T18:20:13.766Z,100384.64
2023-01-03T18:22:42.859Z,100388.88
2023-01-03T18:25:31.023Z,100394.66
2023-01-03T18:28:02.140Z,100389.10
2023-01-03T18:30:30.261Z,100392.45
2023-01-03T18:32:58.198Z,100397.17
2023-01-03T18:35:30.976Z,100397.52
2023-01-03T18:38:02.014Z,100397.50
2023-01-03T18:40:30.645Z,100392.93
2023-01-03T18:43:09.335Z,100389.57
2023-01-03T18:45:38.671Z,100390.77
2023-01-03T18:48:12.222Z,100392.48
2023-01-03T18:50:40.690Z,100395.27
2023-01-03T18:53:37.751Z,100395.27
2023-01-03T18:56:05.939Z,100396.17
2023-01-03T18:58:39.817Z,100398.65
2023-01-03T19:01:10.373Z,100398.84
2023-01-03T19:03:42.498Z,100400.80
2023-01-03T19:06:17.860Z,100400.83
2023-01-03T19:08:46.789Z,100401.39
2023-01-03T19:11:18.620Z,100404.40
2023-01-03T19:13:53.320Z,100404.81
2023-01-03T19:16:24.413Z,100407.67
2023-01-03T19:18:53.381Z,100404.73
2023-01-03T19:21:31.254Z,100402.86
2023-01-03T19:24:04.281Z,100400.98
2023-01-03T19:26:35.327Z,100403.29
2023-01-03T19:29:06.134Z,100403.84
2023-01-03T19:31:44.454Z,100406.34
2023-01-03T19:34:16.510Z,100405.55
2023-01-03T19:36:45.157Z,100405.45
2023-01-03T19:39:13.917Z,100405.02
2023-01-03T19:42:05.002Z,100408.55
2023-01-03T19:44:33.935Z,100409.15
2023-01-03T19:47:03.020Z,100410.09
2023-01-03T19:49:30.942Z,100411.05
2023-01-03T19:51:58.847Z,100409.70
2023-01-03T19:54:26.788Z,100413.61
2023-01-03T19:56:57.632Z,100419.08
2023-01-03T19:59:29.679Z,100421.07
2023-01-03T20:02:24.206Z,100423.92
2023-01-03T20:04:46.185Z,100422.06
2023-01-03T20:07:14.505Z,100421.96
2023-01-03T20:09:42.508Z,100423.41
2023-01-03T20:12:14.807Z,100419.27
2023-01-03T20:14:51.464Z,100416.55
2023-01-03T20:17:28.145Z,100420.23
2023-01-03T20:19:56.032Z,100421.32
2023-01-03T20:23:02.482Z,100423.46
2023-01-03T20:25:24.443Z,100419.15
2023-01-03T20:27:53.727Z,100416.95
2023-01-03T20:30:24.220Z,100416.28
2023-01-03T20:32:52.541Z,100411.45
2023-01-03T20:38:12.337Z,100417.61
2023-01-03T20:40:40.410Z,100420.44
2023-01-03T20:43:13.464Z,100417.15
2023-01-03T20:45:41.675Z,100417.36
2023-01-03T20:48:20.845Z,100419.46
2023-01-03T20:50:53.013Z,100418.64
2023-01-03T20:53:24.319Z,100415.52
2023-01-03T20:55:53.198Z,100415.54
2023-01-03T20:58:25.446Z,100416.42
2023-01-03T21:01:02.112Z,100417.13
2023-01-03T21:03:33.882Z,100412.45
2023-01-03T21:06:04.154Z,100410.02
2023-01-03T21:08:51.116Z,100407.95
2023-01-03T21:11:19.112Z,100403.80
2023-01-03T21:13:47.064Z,100400.67
2023-01-03T21:16:38.163Z,100398.23
2023-01-03T21:19:17.635Z,100399.46
2023-01-03T21:21:48.142Z,100401.23
2023-01-03T21:24:18.852Z,100404.54
2023-01-03T21:26:46.770Z,100405.58
2023-01-03T21:29:15.056Z,100406.11
2023-01-03T21:31:43.897Z,100407.16
2023-01-03T21:34:19.980Z,100405.60
2023-01-03T21:36:49.878Z,100400.21
2023-01-03T21:39:17.853Z,100398.81
2023-01-03T21:42:04.556Z,100401.59
2023-01-03T21:44:32.499Z,100407.84
2023-01-03T21:47:00.492Z,100405.75
2023-01-03T21:49:28.448Z,100400.85
2023-01-03T21:51:56.368Z,100399.44
2023-01-03T21:54:24.359Z,100398.19
2023-01-03T21:56:52.309Z,100397.81
2023-01-03T21:59:20.201Z,100394.13
2023-01-03T22:02:06.820Z,100398.62
2023-01-03T22:04:35.489Z,100402.92
2023-01-03T22:07:03.498Z,100400.98
2023-01-03T22:09:50.594Z,100398.15
2023-01-03T22:12:19.583Z,100395.16
2023-01-03T22:14:48.028Z,100387.80
2023-01-03T22:17:16.379Z,100389.02
2023-01-03T22:19:44.463Z,100389.00
2023-01-03T22:22:12.471Z,100391.77
2023-01-03T22:24:40.447Z,100392.77
2023-01-03T22:27:08.476Z,100393.11
2023-01-03T22:29:36.377Z,100387.01
2023-01-03T22:32:04.697Z,100385.94
2023-01-03T22:34:32.777Z,100385.58
2023-01-03T22:37:00.708Z,100385.73
2023-01-03T22:39:28.662Z,100385.20
2023-01-03T22:41:57.115Z,100380.66
2023-01-03T22:44:25.247Z,100378.89
2023-01-03T22:46:53.169Z,100372.09
2023-01-03T22:49:21.090Z,100370.70
2023-01-03T22:51:49.045Z,100375.23
2023-01-03T22:54:16.955Z,100375.24
2023-01-03T22:56:45.428Z,100375.77
2023-01-03T22:59:13.406Z,100377.02
2023-01-03T23:01:41.825Z,100381.91
2023-01-03T23:04:10.313Z,100383.00
2023-01-03T23:06:38.366Z,100382.83
2023-01-03T23:09:06.331Z,100383.90
2023-01-03T23:11:52.746Z,100374.88
2023-01-03T23:14:23.751Z,100372.12
2023-01-03T23:16:53.403Z,100377.89
2023-01-03T23:19:24.826Z,100375.98
2023-01-03T23:21:53.613Z,100370.42
2023-01-03T23:24:24.508Z,100369.92
2023-01-03T23:26:53.573Z,100370.81
2023-01-03T23:29:22.306Z,100373.10
2023-01-03T23:31:50.167Z,100372.09
2023-01-03T23:34:18.168Z,100366.05
2023-01-03T23:36:46.085Z,100366.97
2023-01-03T23:39:16.561Z,100370.31
2023-01-03T23:41:45.659Z,100374.37
2023-01-03T23:44:13.709Z,100374.24
2023-01-03T23:46:41.942Z,100374.80
2023-01-03T23:49:13.401Z,100377.77
2023-01-03T23:51:41.419Z,100378.67
2023-01-03T23:54:10.456Z,100377.31
2023-01-03T23:56:38.739Z,100374.02
2023-01-03T23:59:06.705Z,100372.11
